createdAt,value
2023-04-22T00:02:02.801Z,74.83
2023-04-22T00:05:07.858Z,75.01
2023-04-22T00:08:10.520Z,75.01
2023-04-22T00:11:13.130Z,75.25
2023-04-22T00:14:15.726Z,75.46
2023-04-22T00:17:18.342Z,75.34
2023-04-22T00:20:22.408Z,75.66
2023-04-22T00:23:25.026Z,75.79
2023-04-22T00:26:27.594Z,75.72
2023-04-22T00:29:30.182Z,75.32
2023-04-22T00:32:32.735Z,76.05
2023-04-22T00:35:36.598Z,75.49
2023-04-22T00:38:39.164Z,74.85
2023-04-22T00:41:41.691Z,75.35
2023-04-22T00:44:44.223Z,75.52
2023-04-22T00:47:46.855Z,75.32
2023-04-22T00:50:50.831Z,74.77
2023-04-22T00:53:53.398Z,74.91
2023-04-22T00:56:56.191Z,74.87
2023-04-22T00:59:58.737Z,75.00
2023-04-22T01:03:01.502Z,74.88
2023-04-22T01:06:05.608Z,75.39
2023-04-22T01:09:08.189Z,75.34
2023-04-22T01:12:10.719Z,75.35
2023-04-22T01:15:13.229Z,74.81
2023-04-22T01:18:16.203Z,74.66
2023-04-22T01:21:20.089Z,74.70
2023-04-22T01:24:23.974Z,75.14
2023-04-22T01:27:26.566Z,75.35
2023-04-22T01:30:29.113Z,75.32
2023-04-22T01:33:31.799Z,75.74
2023-04-22T01:36:34.784Z,75.63
2023-04-22T01:39:38.983Z,75.75
2023-04-22T01:42:41.664Z,75.72
2023-04-22T01:45:44.239Z,76.05
2023-04-22T01:48:50.364Z,75.97
2023-04-22T01:51:52.952Z,75.79
2023-04-22T01:54:56.853Z,75.98
2023-04-22T01:57:59.423Z,75.93
2023-04-22T02:01:01.993Z,75.73
2023-04-22T02:04:04.524Z,76.21
2023-04-22T02:07:07.023Z,75.84
2023-04-22T02:10:12.327Z,75.43
2023-04-22T02:13:14.892Z,75.50
2023-04-22T02:16:17.441Z,75.39
2023-04-22T02:19:20.022Z,75.87
2023-04-22T02:22:22.654Z,75.89
2023-04-22T02:25:26.940Z,76.08
2023-04-22T02:28:29.514Z,76.12
2023-04-22T02:31:32.199Z,75.96
2023-04-22T02:34:34.765Z,76.05
2023-04-22T02:37:37.426Z,76.35
2023-04-22T02:40:41.358Z,76.46
2023-04-22T02:43:46.466Z,76.53
2023-04-22T02:46:49.097Z,76.70
2023-04-22T02:49:51.713Z,76.66
2023-04-22T02:52:54.335Z,76.66
2023-04-22T02:55:58.331Z,76.66
2023-04-22T02:59:00.871Z,76.76
2023-04-22T03:02:06.516Z,77.23
2023-04-22T03:05:10.224Z,77.10
2023-04-22T03:08:12.772Z,77.28
2023-04-22T03:11:16.707Z,77.42
2023-04-22T03:14:19.287Z,77.54
2023-04-22T03:17:21.960Z,77.87
2023-04-22T03:20:24.551Z,77.78
2023-04-22T03:23:27.118Z,77.98
2023-04-22T03:26:31.038Z,77.88
2023-04-22T03:29:33.585Z,78.04
2023-04-22T03:32:36.149Z,78.25
2023-04-22T03:35:38.739Z,78.85
2023-04-22T03:38:41.269Z,78.88
2023-04-22T03:41:45.138Z,79.07
2023-04-22T03:44:47.727Z,79.18
2023-04-22T03:47:50.309Z,79.19
2023-04-22T03:50:53.090Z,79.46
2023-04-22T03:53:55.674Z,79.82
2023-04-22T03:56:59.563Z,79.76
2023-04-22T04:00:02.104Z,79.76
2023-04-22T04:03:04.951Z,80.05
2023-04-22T04:06:07.673Z,80.07
2023-04-22T04:09:10.924Z,80.51
2023-04-22T04:12:14.837Z,80.42
2023-04-22T04:15:18.894Z,80.57
2023-04-22T04:18:21.576Z,80.53
2023-04-22T04:21:24.174Z,80.94
2023-04-22T04:24:26.816Z,81.04
2023-04-22T04:27:30.725Z,80.67
2023-04-22T04:30:33.629Z,81.22
2023-04-22T04:33:37.784Z,80.84
2023-04-22T04:36:40.351Z,81.29
2023-04-22T04:39:43.434Z,81.22
2023-04-22T04:42:47.447Z,81.14
2023-04-22T04:45:50.010Z,81.13
2023-04-22T04:48:53.942Z,81.51
2023-04-22T04:51:56.473Z,81.48
2023-04-22T04:54:59.036Z,81.61
2023-04-22T04:58:02.940Z,81.56
2023-04-22T05:01:06.171Z,81.70
2023-04-22T05:04:08.885Z,81.69
2023-04-22T05:07:11.574Z,81.84
2023-04-22T05:10:14.483Z,82.05
2023-04-22T05:13:18.353Z,81.83
2023-04-22T05:16:20.997Z,81.84
2023-04-22T05:19:23.665Z,81.92
2023-04-22T05:22:26.187Z,82.17
2023-04-22T05:25:28.754Z,82.18
2023-04-22T05:28:32.674Z,81.95
2023-04-22T05:31:35.211Z,82.19
2023-04-22T05:34:37.746Z,82.35
2023-04-22T05:37:40.493Z,82.52
2023-04-22T05:40:43.088Z,82.51
2023-04-22T05:43:47.292Z,82.10
2023-04-22T05:46:49.799Z,82.53
2023-04-22T05:49:52.585Z,82.67
2023-04-22T05:52:55.087Z,82.84
2023-04-22T05:55:57.589Z,83.17
2023-04-22T05:59:01.516Z,83.01
2023-04-22T06:02:04.167Z,83.17
2023-04-22T06:05:07.861Z,83.26
2023-04-22T06:08:10.626Z,83.31
2023-04-22T06:11:13.217Z,83.78
2023-04-22T06:14:17.124Z,83.70
2023-04-22T06:17:19.682Z,84.04
2023-04-22T06:20:22.486Z,83.97
2023-04-22T06:23:25.035Z,84.17
2023-04-22T06:26:27.685Z,84.45
2023-04-22T06:29:31.633Z,84.34
2023-04-22T06:32:34.198Z,84.54
2023-04-22T06:35:36.729Z,84.87
2023-04-22T06:38:39.279Z,84.87
2023-04-22T06:41:44.281Z,84.60
2023-04-22T06:44:48.228Z,84.79
2023-04-22T06:47:51.252Z,84.80
2023-04-22T06:50:53.792Z,85.25
2023-04-22T06:53:58.204Z,85.37
2023-04-22T06:57:01.557Z,85.31
2023-04-22T07:00:06.089Z,85.38
2023-04-22T07:03:08.757Z,85.66
2023-04-22T07:06:11.389Z,85.65
2023-04-22T07:09:13.905Z,85.62
2023-04-22T07:12:16.872Z,85.33
2023-04-22T07:15:20.836Z,86.02
2023-04-22T07:18:23.407Z,85.57
2023-04-22T07:21:26.185Z,85.33
2023-04-22T07:24:28.717Z,85.94
2023-04-22T07:27:31.288Z,86.32
2023-04-22T07:30:35.296Z,86.61
2023-04-22T07:33:37.892Z,86.96
2023-04-22T07:36:40.426Z,86.87
2023-04-22T07:39:43.013Z,86.09
2023-04-22T07:42:45.575Z,85.84
2023-04-22T07:45:49.445Z,86.10
2023-04-22T07:48:52.050Z,86.56
2023-04-22T07:51:54.638Z,87.01
2023-04-22T07:54:57.189Z,86.41
2023-04-22T07:58:00.845Z,86.60
2023-04-22T08:01:05.237Z,86.82
2023-04-22T08:04:08.414Z,86.65
2023-04-22T08:10:16.732Z,85.08
2023-04-22T08:13:19.341Z,84.82
2023-04-22T08:16:23.342Z,85.22
2023-04-22T08:19:25.943Z,84.39
2023-04-22T08:22:28.495Z,84.09
2023-04-22T08:25:31.471Z,83.23
2023-04-22T08:28:34.000Z,83.05
2023-04-22T08:31:37.927Z,82.40
2023-04-22T08:34:40.862Z,82.38
2023-04-22T08:37:43.558Z,81.79
2023-04-22T08:40:46.144Z,81.33
2023-04-22T08:43:49.126Z,80.50
2023-04-22T08:46:53.266Z,79.70
2023-04-22T08:49:56.223Z,79.46
2023-04-22T08:52:58.776Z,78.56
2023-04-22T08:56:01.330Z,77.70
2023-04-22T08:59:04.231Z,77.39
2023-04-22T09:02:08.693Z,76.85
2023-04-22T09:05:11.519Z,76.49
2023-04-22T09:08:14.038Z,75.78
2023-04-22T09:11:16.581Z,75.03
2023-04-22T09:14:19.817Z,74.35
2023-04-22T09:17:32.105Z,73.60
2023-04-22T09:20:34.707Z,73.13
2023-04-22T09:23:46.477Z,72.72
2023-04-22T09:26:49.262Z,72.54
2023-04-22T09:29:52.338Z,73.07
2023-04-22T09:32:57.040Z,73.17
2023-04-22T09:35:59.668Z,73.25
2023-04-22T09:39:04.974Z,73.47
2023-04-22T09:42:07.483Z,73.33
2023-04-22T09:45:10.601Z,73.99
2023-04-22T09:48:15.142Z,73.52
2023-04-22T09:51:17.778Z,73.72
2023-04-22T09:54:20.428Z,73.77
2023-04-22T09:57:23.089Z,73.34
2023-04-22T10:00:27.036Z,73.26
2023-04-22T10:03:30.930Z,73.44
2023-04-22T10:06:33.534Z,72.96
2023-04-22T10:09:36.261Z,72.93
2023-04-22T10:12:38.872Z,72.40
2023-04-22T10:15:42.347Z,71.84
2023-04-22T10:18:46.224Z,71.57
2023-04-22T10:21:51.474Z,71.34
2023-04-22T10:24:55.995Z,70.94
2023-04-22T10:28:03.199Z,69.76
2023-04-22T10:31:07.460Z,69.77
2023-04-22T10:34:13.042Z,69.64
2023-04-22T10:37:15.767Z,68.72
2023-04-22T10:40:18.845Z,67.91
2023-04-22T10:43:21.364Z,67.95
2023-04-22T10:47:00.958Z,67.46
2023-04-22T10:50:18.562Z,67.48
2023-04-22T10:53:36.134Z,67.66
2023-04-22T10:57:01.791Z,67.65
2023-04-22T11:03:37.716Z,68.01
2023-04-22T11:06:41.722Z,68.35
2023-04-22T11:09:45.417Z,68.43
2023-04-22T11:12:47.994Z,68.75
2023-04-22T11:15:51.116Z,68.77
2023-04-22T11:18:53.806Z,68.68
2023-04-22T11:21:58.581Z,69.40
2023-04-22T11:25:01.578Z,69.14
2023-04-22T11:28:04.486Z,69.33
2023-04-22T11:31:07.778Z,69.67
2023-04-22T11:34:10.470Z,69.32
2023-04-22T11:37:14.358Z,69.38
2023-04-22T11:40:30.002Z,69.88
2023-04-22T11:43:34.278Z,69.56
2023-04-22T11:46:39.373Z,70.41
2023-04-22T11:49:41.960Z,70.61
2023-04-22T11:52:50.184Z,70.89
2023-04-22T11:55:52.925Z,70.83
2023-04-22T11:58:55.447Z,70.45
2023-04-22T12:01:57.994Z,70.39
2023-04-22T12:05:00.653Z,71.19
2023-04-22T12:08:05.496Z,71.35
2023-04-22T12:11:09.327Z,71.51
2023-04-22T12:14:11.884Z,71.86
2023-04-22T12:17:15.527Z,71.82
2023-04-22T12:20:18.149Z,72.14
2023-04-22T12:23:22.077Z,72.24
2023-04-22T12:26:26.881Z,72.21
2023-04-22T12:29:31.722Z,72.42
2023-04-22T12:32:34.343Z,72.65
2023-04-22T12:35:36.876Z,72.51
2023-04-22T12:38:41.306Z,72.62
2023-04-22T12:41:43.905Z,72.93
2023-04-22T12:44:46.830Z,73.06
2023-04-22T12:47:49.648Z,73.60
2023-04-22T12:50:52.267Z,73.63
2023-04-22T12:53:56.121Z,73.64
2023-04-22T12:56:58.827Z,73.62
2023-04-22T13:00:01.450Z,73.52
2023-04-22T13:03:04.190Z,73.61
2023-04-22T13:06:07.048Z,73.18
2023-04-22T13:09:10.981Z,73.49
2023-04-22T13:12:13.549Z,73.59
2023-04-22T13:15:16.843Z,73.45
2023-04-22T13:18:19.537Z,73.16
2023-04-22T13:21:22.178Z,73.27
2023-04-22T13:24:26.396Z,73.36
2023-04-22T13:27:29.691Z,73.70
2023-04-22T13:30:32.305Z,73.49
2023-04-22T13:33:34.803Z,72.97
2023-04-22T13:36:37.346Z,73.78
2023-04-22T13:39:41.404Z,73.29
2023-04-22T13:42:44.412Z,73.46
2023-04-22T13:45:48.251Z,73.50
2023-04-22T13:48:50.923Z,73.37
2023-04-22T13:51:53.496Z,73.66
2023-04-22T13:54:57.366Z,73.52
2023-04-22T13:58:01.106Z,73.42
2023-04-22T14:01:04.158Z,73.90
2023-04-22T14:04:06.912Z,74.07
2023-04-22T14:07:09.493Z,73.98
2023-04-22T14:10:13.724Z,73.81
2023-04-22T14:13:16.275Z,73.54
2023-04-22T14:16:19.737Z,73.78
2023-04-22T14:19:24.188Z,73.88
2023-04-22T14:22:26.833Z,73.87
2023-04-22T14:25:30.731Z,73.44
2023-04-22T14:28:33.273Z,73.56
2023-04-22T14:31:35.873Z,73.64
2023-04-22T14:34:39.083Z,73.70
2023-04-22T14:37:43.422Z,73.56
2023-04-22T14:40:47.321Z,73.60
2023-04-22T14:43:49.891Z,73.71
2023-04-22T14:46:52.477Z,73.76
2023-04-22T14:49:55.076Z,73.79
2023-04-22T14:52:57.715Z,73.83
2023-04-22T14:56:01.571Z,73.90
2023-04-22T14:59:04.161Z,73.78
2023-04-22T15:02:07.182Z,73.65
2023-04-22T15:05:10.065Z,73.86
2023-04-22T15:08:12.637Z,74.02
2023-04-22T15:11:16.574Z,73.88
2023-04-22T15:14:19.156Z,74.07
2023-04-22T15:17:21.817Z,73.90
2023-04-22T15:20:24.494Z,73.90
2023-04-22T15:23:27.035Z,74.35
2023-04-22T15:26:30.949Z,74.20
2023-04-22T15:29:33.491Z,74.12
2023-04-22T15:32:37.045Z,74.03
2023-04-22T15:35:41.256Z,74.20
2023-04-22T15:38:43.770Z,74.36
2023-04-22T15:41:47.718Z,74.73
2023-04-22T15:44:50.442Z,74.33
2023-04-22T15:47:53.880Z,74.46
2023-04-22T15:50:56.398Z,74.79
2023-04-22T15:53:59.191Z,74.70
2023-04-22T15:57:03.525Z,74.58
2023-04-22T16:00:11.863Z,74.90
2023-04-22T16:03:16.258Z,74.60
2023-04-22T16:06:18.922Z,74.22
2023-04-22T16:09:21.494Z,74.17
2023-04-22T16:12:25.412Z,74.04
2023-04-22T16:15:27.991Z,74.09
2023-04-22T16:18:30.578Z,74.44
2023-04-22T16:21:33.866Z,74.29
2023-04-22T16:24:36.588Z,74.12
2023-04-22T16:27:40.620Z,73.20
2023-04-22T16:30:43.228Z,72.45
2023-04-22T16:33:46.213Z,72.50
2023-04-22T16:36:48.792Z,71.98
2023-04-22T16:39:51.492Z,72.21
2023-04-22T16:42:57.158Z,71.77
2023-04-22T16:45:59.934Z,71.72
2023-04-22T16:49:02.485Z,71.72
2023-04-22T16:52:05.030Z,71.31
2023-04-22T16:55:08.613Z,71.34
2023-04-22T16:58:12.588Z,70.99
2023-04-22T17:01:15.158Z,71.34
2023-04-22T17:04:18.207Z,71.42
2023-04-22T17:07:21.079Z,71.03
2023-04-22T17:10:24.649Z,71.04
2023-04-22T17:13:28.556Z,70.39
2023-04-22T17:16:31.094Z,69.90
2023-04-22T17:19:33.686Z,69.62
2023-04-22T17:22:36.257Z,69.43
2023-04-22T17:25:38.794Z,69.02
2023-04-22T17:28:42.693Z,69.11
2023-04-22T17:31:46.010Z,69.33
2023-04-22T17:34:48.733Z,69.06
2023-04-22T17:37:53.457Z,69.08
2023-04-22T17:40:56.079Z,69.13
2023-04-22T17:43:59.971Z,69.12
2023-04-22T17:47:03.972Z,68.59
2023-04-22T17:50:09.141Z,67.51
2023-04-22T17:53:11.750Z,67.40
2023-04-22T17:56:14.263Z,67.10
2023-04-22T17:59:18.750Z,67.09
2023-04-22T18:02:22.077Z,67.02
2023-04-22T18:05:24.826Z,66.80
2023-04-22T18:08:27.477Z,67.22
2023-04-22T18:11:30.033Z,67.21
2023-04-22T18:14:33.919Z,67.54
2023-04-22T18:17:36.470Z,67.51
2023-04-22T18:20:39.049Z,67.71
2023-04-22T18:23:42.324Z,67.77
2023-04-22T18:26:47.027Z,67.98
2023-04-22T18:29:51.320Z,67.92
2023-04-22T18:32:53.954Z,68.15
2023-04-22T18:35:56.576Z,68.30
2023-04-22T18:38:59.092Z,68.18
2023-04-22T18:42:02.241Z,68.45
2023-04-22T18:45:07.520Z,68.35
2023-04-22T18:48:10.104Z,68.58
2023-04-22T18:51:13.448Z,68.92
2023-04-22T18:54:16.030Z,68.56
2023-04-22T18:57:18.628Z,68.72
2023-04-22T19:00:22.587Z,68.87
2023-04-22T19:03:25.398Z,68.92
2023-04-22T19:06:28.920Z,68.92
2023-04-22T19:09:32.261Z,69.52
2023-04-22T19:12:34.851Z,69.75
2023-04-22T19:15:38.765Z,69.57
2023-04-22T19:18:41.454Z,69.79
2023-04-22T19:21:44.073Z,69.69
2023-04-22T19:24:46.841Z,69.72
2023-04-22T19:27:49.437Z,69.32
2023-04-22T19:30:53.555Z,69.13
2023-04-22T19:33:56.170Z,69.36
2023-04-22T19:36:58.730Z,69.39
2023-04-22T19:40:01.321Z,69.42
2023-04-22T19:43:04.189Z,69.68
2023-04-22T19:46:08.174Z,70.59
2023-04-22T19:49:11.309Z,70.88
2023-04-22T19:52:15.486Z,70.83
2023-04-22T19:55:18.378Z,70.38
2023-04-22T19:58:20.983Z,70.87
2023-04-22T20:01:25.506Z,71.10
2023-04-22T20:04:29.789Z,70.83
2023-04-22T20:07:33.188Z,71.45
2023-04-22T20:10:35.875Z,70.75
2023-04-22T20:13:38.879Z,72.13
2023-04-22T20:16:43.434Z,72.10
2023-04-22T20:19:46.255Z,72.46
2023-04-22T20:22:48.780Z,72.32
2023-04-22T20:25:51.630Z,72.09
2023-04-22T20:28:54.624Z,71.64
2023-04-22T20:31:59.071Z,71.90
2023-04-22T20:35:02.159Z,72.82
2023-04-22T20:38:04.805Z,72.50
2023-04-22T20:41:08.399Z,72.90
2023-04-22T20:44:10.956Z,73.61
2023-04-22T20:47:16.341Z,73.42
2023-04-22T20:50:19.001Z,73.95
2023-04-22T20:53:21.597Z,74.46
2023-04-22T20:56:24.832Z,73.83
2023-04-22T20:59:27.607Z,74.81
2023-04-22T21:02:31.589Z,74.78
2023-04-22T21:05:40.613Z,74.90
2023-04-22T21:08:43.141Z,74.58
2023-04-22T21:11:46.116Z,74.11
2023-04-22T21:14:49.265Z,74.55
2023-04-22T21:17:56.394Z,75.23
2023-04-22T21:20:59.759Z,75.47
2023-04-22T21:24:02.719Z,75.10
2023-04-22T21:27:05.795Z,75.59
2023-04-22T21:30:09.875Z,75.47
2023-04-22T21:33:13.737Z,76.21
2023-04-22T21:36:16.269Z,76.48
2023-04-22T21:39:19.132Z,76.51
2023-04-22T21:42:21.631Z,76.77
2023-04-22T21:45:24.169Z,77.56
2023-04-22T21:48:28.133Z,77.71
2023-04-22T21:51:30.799Z,78.09
2023-04-22T21:54:33.390Z,78.12
2023-04-22T21:57:35.929Z,78.74
2023-04-22T22:00:38.683Z,79.26
2023-04-22T22:03:42.654Z,79.23
2023-04-22T22:06:45.631Z,79.04
2023-04-22T22:09:48.149Z,79.79
2023-04-22T22:12:50.740Z,79.85
2023-04-22T22:15:55.405Z,79.67
2023-04-22T22:19:02.331Z,80.46
2023-04-22T22:22:04.905Z,80.46
2023-04-22T22:25:08.788Z,80.52
2023-04-22T22:28:11.386Z,81.09
2023-04-22T22:31:14.603Z,81.06
2023-04-22T22:34:18.445Z,81.56
2023-04-22T22:37:20.975Z,81.94
2023-04-22T22:40:23.557Z,81.46
2023-04-22T22:43:26.677Z,81.96
2023-04-22T22:46:29.315Z,82.03
2023-04-22T22:49:33.527Z,82.22
2023-04-22T22:52:36.253Z,82.17
2023-04-22T22:55:38.817Z,82.24
2023-04-22T22:58:41.329Z,82.49
2023-04-22T23:01:44.059Z,82.82
2023-04-22T23:04:48.079Z,83.17
2023-04-22T23:07:50.639Z,83.42
2023-04-22T23:10:53.178Z,83.31
2023-04-22T23:13:56.231Z,83.52
2023-04-22T23:16:58.828Z,83.73
2023-04-22T23:20:02.804Z,84.45
2023-04-22T23:23:05.359Z,84.34
2023-04-22T23:26:08.729Z,84.33
2023-04-22T23:29:11.720Z,84.60
2023-04-22T23:32:16.337Z,84.86
2023-04-22T23:35:20.332Z,84.86
2023-04-22T23:38:22.922Z,85.15
2023-04-22T23:41:25.555Z,85.31
2023-04-22T23:44:28.092Z,85.14
2023-04-22T23:47:31.252Z,85.39
2023-04-22T23:50:35.545Z,85.67
2023-04-22T23:53:38.403Z,85.69
2023-04-22T23:56:41.769Z,85.64
2023-04-22T23:59:44.939Z,85.86
